sensor_id;sensor_type;location;lat;lon;timestamp;noise_LAeq;noise_LA_min;noise_LA_max;noise_LA01;noise_LA95
72736;Laerm;60856;53.238;10.448;2023-06-14T00:00:30;54.27;52.91;55.31;;
72736;Laerm;60856;53.238;10.448;2023-06-14T00:02:56;54.27;52.96;55.39;;
72736;Laerm;60856;53.238;10.448;2023-06-14T00:05:21;54.25;53.14;55.39;;
72736;Laerm;60856;53.238;10.448;2023-06-14T00:07:48;54.26;53.19;55.34;;
72736;Laerm;60856;53.238;10.448;2023-06-14T00:10:14;54.26;53.25;55.42;;
72736;Laerm;60856;53.238;10.448;2023-06-14T00:12:39;54.27;53.08;55.50;;
72736;Laerm;60856;53.238;10.448;2023-06-14T00:15:05;54.26;53.18;55.34;;
72736;Laerm;60856;53.238;10.448;2023-06-14T00:17:31;54.24;53.16;55.69;;
72736;Laerm;60856;53.238;10.448;2023-06-14T00:19:56;54.22;53.22;55.42;;
72736;Laerm;60856;53.238;10.448;2023-06-14T00:22:22;54.22;53.19;55.40;;
72736;Laerm;60856;53.238;10.448;2023-06-14T00:24:49;54.21;52.95;55.36;;
72736;Laerm;60856;53.238;10.448;2023-06-14T00:27:15;54.22;53.17;55.43;;
72736;Laerm;60856;53.238;10.448;2023-06-14T00:29:40;54.21;53.03;55.80;;
72736;Laerm;60856;53.238;10.448;2023-06-14T00:32:06;54.22;53.09;55.48;;
72736;Laerm;60856;53.238;10.448;2023-06-14T00:34:31;54.24;52.95;55.33;;
72736;Laerm;60856;53.238;10.448;2023-06-14T00:36:56;54.22;53.23;55.56;;
72736;Laerm;60856;53.238;10.448;2023-06-14T00:39:22;54.20;53.15;55.41;;
72736;Laerm;60856;53.238;10.448;2023-06-14T00:41:47;54.18;53.14;55.43;;
72736;Laerm;60856;53.238;10.448;2023-06-14T00:44:12;54.18;53.14;55.42;;
72736;Laerm;60856;53.238;10.448;2023-06-14T00:46:41;54.17;53.02;55.41;;
72736;Laerm;60856;53.238;10.448;2023-06-14T00:49:06;54.18;53.11;55.35;;
72736;Laerm;60856;53.238;10.448;2023-06-14T00:51:31;54.17;53.04;55.41;;
72736;Laerm;60856;53.238;10.448;2023-06-14T00:53:57;54.17;53.12;55.29;;
72736;Laerm;60856;53.238;10.448;2023-06-14T00:56:22;54.16;53.08;55.59;;
72736;Laerm;60856;53.238;10.448;2023-06-14T00:58:48;54.16;53.06;55.49;;
72736;Laerm;60856;53.238;10.448;2023-06-14T01:04:16;54.14;52.89;55.40;;
72736;Laerm;60856;53.238;10.448;2023-06-14T01:11:50;54.13;53.08;55.25;;
72736;Laerm;60856;53.238;10.448;2023-06-14T01:14:19;54.12;53.14;55.18;;
72736;Laerm;60856;53.238;10.448;2023-06-14T01:16:46;54.12;53.02;55.36;;
72736;Laerm;60856;53.238;10.448;2023-06-14T01:19:12;54.10;52.97;55.23;;
72736;Laerm;60856;53.238;10.448;2023-06-14T01:21:39;54.10;53.08;55.21;;
72736;Laerm;60856;53.238;10.448;2023-06-14T01:27:09;54.06;53.04;55.26;;
72736;Laerm;60856;53.238;10.448;2023-06-14T01:29:35;54.08;53.03;55.30;;
72736;Laerm;60856;53.238;10.448;2023-06-14T01:32:01;54.09;53.07;55.26;;
72736;Laerm;60856;53.238;10.448;2023-06-14T01:34:27;54.08;53.15;55.23;;
72736;Laerm;60856;53.238;10.448;2023-06-14T01:36:52;54.07;53.11;55.37;;
72736;Laerm;60856;53.238;10.448;2023-06-14T01:39:20;54.06;52.98;55.30;;
72736;Laerm;60856;53.238;10.448;2023-06-14T01:41:46;54.06;52.95;55.19;;
72736;Laerm;60856;53.238;10.448;2023-06-14T01:44:12;54.06;52.98;55.31;;
72736;Laerm;60856;53.238;10.448;2023-06-14T01:46:38;54.04;53.02;55.23;;
72736;Laerm;60856;53.238;10.448;2023-06-14T01:49:05;54.03;52.72;55.14;;
72736;Laerm;60856;53.238;10.448;2023-06-14T01:51:30;54.03;52.98;55.22;;
72736;Laerm;60856;53.238;10.448;2023-06-14T01:53:55;54.05;52.98;55.53;;
72736;Laerm;60856;53.238;10.448;2023-06-14T01:56:22;54.05;53.08;55.32;;
72736;Laerm;60856;53.238;10.448;2023-06-14T01:58:47;54.04;52.91;55.20;;
72736;Laerm;60856;53.238;10.448;2023-06-14T02:01:13;54.02;53.03;55.24;;
72736;Laerm;60856;53.238;10.448;2023-06-14T02:06:43;54.03;52.88;55.37;;
72736;Laerm;60856;53.238;10.448;2023-06-14T02:09:09;54.04;52.81;55.31;;
72736;Laerm;60856;53.238;10.448;2023-06-14T02:11:34;54.03;52.90;55.27;;
72736;Laerm;60856;53.238;10.448;2023-06-14T02:13:59;54.02;52.86;55.12;;
72736;Laerm;60856;53.238;10.448;2023-06-14T02:16:25;54.04;52.76;55.31;;
72736;Laerm;60856;53.238;10.448;2023-06-14T02:18:52;54.03;53.02;55.25;;
72736;Laerm;60856;53.238;10.448;2023-06-14T02:21:18;54.04;52.89;55.22;;
72736;Laerm;60856;53.238;10.448;2023-06-14T02:23:43;54.04;52.99;55.53;;
72736;Laerm;60856;53.238;10.448;2023-06-14T02:26:08;54.04;52.99;55.49;;
72736;Laerm;60856;53.238;10.448;2023-06-14T02:28:34;54.03;52.87;55.28;;
72736;Laerm;60856;53.238;10.448;2023-06-14T02:31:00;54.05;52.98;55.12;;
72736;Laerm;60856;53.238;10.448;2023-06-14T02:33:25;54.03;52.96;55.07;;
72736;Laerm;60856;53.238;10.448;2023-06-14T02:35:51;54.03;52.88;55.42;;
72736;Laerm;60856;53.238;10.448;2023-06-14T02:38:17;54.05;53.04;55.41;;
72736;Laerm;60856;53.238;10.448;2023-06-14T02:40:43;54.02;52.97;55.20;;
72736;Laerm;60856;53.238;10.448;2023-06-14T02:46:11;54.02;52.92;55.31;;
72736;Laerm;60856;53.238;10.448;2023-06-14T02:48:36;54.04;52.92;55.29;;
72736;Laerm;60856;53.238;10.448;2023-06-14T02:51:01;54.04;53.01;55.25;;
72736;Laerm;60856;53.238;10.448;2023-06-14T02:53:26;54.06;53.10;55.30;;
72736;Laerm;60856;53.238;10.448;2023-06-14T02:55:52;54.08;52.92;55.19;;
72736;Laerm;60856;53.238;10.448;2023-06-14T02:58:17;54.06;52.76;55.29;;
72736;Laerm;60856;53.238;10.448;2023-06-14T03:00:43;54.07;52.97;55.24;;
72736;Laerm;60856;53.238;10.448;2023-06-14T03:03:09;54.09;53.01;55.25;;
72736;Laerm;60856;53.238;10.448;2023-06-14T03:05:49;54.12;53.02;55.23;;
72736;Laerm;60856;53.238;10.448;2023-06-14T03:08:18;54.13;53.09;55.40;;
72736;Laerm;60856;53.238;10.448;2023-06-14T03:10:47;54.16;53.14;55.25;;
72736;Laerm;60856;53.238;10.448;2023-06-14T03:13:12;54.18;53.07;55.31;;
72736;Laerm;60856;53.238;10.448;2023-06-14T03:15:38;54.16;53.01;55.28;;
72736;Laerm;60856;53.238;10.448;2023-06-14T03:18:04;54.17;53.02;55.33;;
72736;Laerm;60856;53.238;10.448;2023-06-14T03:20:29;54.20;53.00;55.56;;
72736;Laerm;60856;53.238;10.448;2023-06-14T03:22:55;54.20;53.25;55.39;;
72736;Laerm;60856;53.238;10.448;2023-06-14T03:25:20;54.19;53.16;55.51;;
72736;Laerm;60856;53.238;10.448;2023-06-14T03:27:47;54.23;53.16;55.36;;
72736;Laerm;60856;53.238;10.448;2023-06-14T03:30:12;54.24;53.24;55.54;;
72736;Laerm;60856;53.238;10.448;2023-06-14T03:32:37;54.26;53.34;55.55;;
72736;Laerm;60856;53.238;10.448;2023-06-14T03:35:02;54.30;53.26;55.56;;
72736;Laerm;60856;53.238;10.448;2023-06-14T03:37:28;54.33;53.20;55.51;;
72736;Laerm;60856;53.238;10.448;2023-06-14T03:39:53;54.77;53.36;56.85;;
72736;Laerm;60856;53.238;10.448;2023-06-14T03:42:19;57.02;55.59;58.01;;
72736;Laerm;60856;53.238;10.448;2023-06-14T03:44:44;57.15;56.00;58.21;;
72736;Laerm;60856;53.238;10.448;2023-06-14T03:47:09;57.11;56.17;58.14;;
72736;Laerm;60856;53.238;10.448;2023-06-14T03:49:34;57.22;56.30;58.29;;
72736;Laerm;60856;53.238;10.448;2023-06-14T03:52:00;55.91;45.97;62.08;;
72736;Laerm;60856;53.238;10.448;2023-06-14T03:54:25;47.11;45.85;50.69;;
72736;Laerm;60856;53.238;10.448;2023-06-14T03:56:51;47.88;46.08;51.04;;
72736;Laerm;60856;53.238;10.448;2023-06-14T03:59:16;47.24;45.80;50.34;;
72736;Laerm;60856;53.238;10.448;2023-06-14T04:01:41;48.03;46.32;50.84;;
72736;Laerm;60856;53.238;10.448;2023-06-14T04:04:09;48.19;46.62;50.89;;
72736;Laerm;60856;53.238;10.448;2023-06-14T04:06:35;49.10;47.49;51.30;;
72736;Laerm;60856;53.238;10.448;2023-06-14T04:09:00;49.74;47.60;53.10;;
72736;Laerm;60856;53.238;10.448;2023-06-14T04:11:29;50.15;47.91;52.47;;
72736;Laerm;60856;53.238;10.448;2023-06-14T04:13:54;50.45;48.79;52.96;;
72736;Laerm;60856;53.238;10.448;2023-06-14T04:16:21;49.28;48.02;51.17;;
72736;Laerm;60856;53.238;10.448;2023-06-14T04:18:46;49.16;47.74;51.18;;
72736;Laerm;60856;53.238;10.448;2023-06-14T04:21:13;49.31;47.57;52.58;;
72736;Laerm;60856;53.238;10.448;2023-06-14T04:23:38;49.73;48.03;54.57;;
72736;Laerm;60856;53.238;10.448;2023-06-14T04:26:04;49.97;48.48;52.64;;
72736;Laerm;60856;53.238;10.448;2023-06-14T04:28:29;50.72;48.17;53.47;;
72736;Laerm;60856;53.238;10.448;2023-06-14T04:30:55;50.83;48.48;55.09;;
72736;Laerm;60856;53.238;10.448;2023-06-14T04:33:20;49.91;48.13;54.25;;
72736;Laerm;60856;53.238;10.448;2023-06-14T04:35:45;49.10;47.84;51.32;;
72736;Laerm;60856;53.238;10.448;2023-06-14T04:38:12;48.97;47.61;51.03;;
72736;Laerm;60856;53.238;10.448;2023-06-14T04:40:37;48.82;47.56;50.97;;
72736;Laerm;60856;53.238;10.448;2023-06-14T04:43:08;50.46;47.51;54.89;;
72736;Laerm;60856;53.238;10.448;2023-06-14T04:45:33;56.75;47.41;63.39;;
72736;Laerm;60856;53.238;10.448;2023-06-14T04:47:59;48.92;47.54;51.70;;
72736;Laerm;60856;53.238;10.448;2023-06-14T04:50:24;48.70;47.29;54.04;;
72736;Laerm;60856;53.238;10.448;2023-06-14T04:52:49;54.90;47.47;59.95;;
72736;Laerm;60856;53.238;10.448;2023-06-14T04:55:16;57.37;56.33;58.64;;
72736;Laerm;60856;53.238;10.448;2023-06-14T04:57:41;57.21;55.89;58.68;;
72736;Laerm;60856;53.238;10.448;2023-06-14T05:00:07;56.74;55.82;57.83;;
72736;Laerm;60856;53.238;10.448;2023-06-14T05:02:32;56.60;55.55;57.72;;
72736;Laerm;60856;53.238;10.448;2023-06-14T05:04:58;56.55;55.37;57.86;;
72736;Laerm;60856;53.238;10.448;2023-06-14T05:07:24;56.34;55.19;57.60;;
72736;Laerm;60856;53.238;10.448;2023-06-14T05:09:49;56.34;54.98;57.45;;
72736;Laerm;60856;53.238;10.448;2023-06-14T05:12:14;56.18;54.88;57.41;;
72736;Laerm;60856;53.238;10.448;2023-06-14T05:14:43;56.06;54.65;57.38;;
72736;Laerm;60856;53.238;10.448;2023-06-14T05:17:08;56.09;54.92;57.34;;
72736;Laerm;60856;53.238;10.448;2023-06-14T05:19:36;56.08;54.85;57.24;;
72736;Laerm;60856;53.238;10.448;2023-06-14T05:22:01;55.83;54.80;57.10;;
72736;Laerm;60856;53.238;10.448;2023-06-14T05:24:27;55.70;54.67;56.75;;
72736;Laerm;60856;53.238;10.448;2023-06-14T05:26:54;55.67;54.56;56.90;;
72736;Laerm;60856;53.238;10.448;2023-06-14T05:29:19;55.70;54.43;56.99;;
72736;Laerm;60856;53.238;10.448;2023-06-14T05:31:45;55.58;54.28;56.75;;
72736;Laerm;60856;53.238;10.448;2023-06-14T05:34:10;55.46;54.27;56.67;;
72736;Laerm;60856;53.238;10.448;2023-06-14T05:36:35;55.45;54.36;56.71;;
72736;Laerm;60856;53.238;10.448;2023-06-14T05:39:02;55.30;54.04;56.62;;
72736;Laerm;60856;53.238;10.448;2023-06-14T05:41:28;55.11;53.81;56.49;;
72736;Laerm;60856;53.238;10.448;2023-06-14T05:43:54;54.96;53.67;56.37;;
72736;Laerm;60856;53.238;10.448;2023-06-14T05:46:19;55.38;53.09;56.98;;
72736;Laerm;60856;53.238;10.448;2023-06-14T05:48:47;55.60;54.45;56.88;;
72736;Laerm;60856;53.238;10.448;2023-06-14T05:51:12;55.78;54.67;57.03;;
72736;Laerm;60856;53.238;10.448;2023-06-14T05:53:38;55.76;54.47;57.04;;
72736;Laerm;60856;53.238;10.448;2023-06-14T05:56:03;55.51;54.03;56.80;;
72736;Laerm;60856;53.238;10.448;2023-06-14T05:58:28;55.03;53.71;56.34;;
72736;Laerm;60856;53.238;10.448;2023-06-14T06:00:53;54.90;53.73;56.23;;
72736;Laerm;60856;53.238;10.448;2023-06-14T06:03:19;55.23;54.12;56.44;;
72736;Laerm;60856;53.238;10.448;2023-06-14T06:05:44;55.44;54.08;56.79;;
72736;Laerm;60856;53.238;10.448;2023-06-14T06:08:09;55.14;53.82;56.36;;
72736;Laerm;60856;53.238;10.448;2023-06-14T06:10:34;55.29;53.91;56.88;;
72736;Laerm;60856;53.238;10.448;2023-06-14T06:13:00;55.23;54.02;56.65;;
72736;Laerm;60856;53.238;10.448;2023-06-14T06:15:25;54.88;53.14;56.27;;
72736;Laerm;60856;53.238;10.448;2023-06-14T06:17:50;55.30;53.99;57.00;;
72736;Laerm;60856;53.238;10.448;2023-06-14T06:20:16;55.20;53.97;56.54;;
72736;Laerm;60856;53.238;10.448;2023-06-14T06:22:42;55.22;53.99;56.66;;
72736;Laerm;60856;53.238;10.448;2023-06-14T06:25:07;55.31;54.16;56.63;;
72736;Laerm;60856;53.238;10.448;2023-06-14T06:27:33;54.99;53.44;56.25;;
72736;Laerm;60856;53.238;10.448;2023-06-14T06:29:59;55.34;53.94;56.67;;
72736;Laerm;60856;53.238;10.448;2023-06-14T06:32:24;55.06;53.19;56.37;;
72736;Laerm;60856;53.238;10.448;2023-06-14T06:34:49;54.03;52.61;55.49;;
72736;Laerm;60856;53.238;10.448;2023-06-14T06:37:15;53.89;52.60;55.36;;
72736;Laerm;60856;53.238;10.448;2023-06-14T06:39:40;54.01;52.43;55.81;;
72736;Laerm;60856;53.238;10.448;2023-06-14T06:42:05;54.86;53.46;56.40;;
72736;Laerm;60856;53.238;10.448;2023-06-14T06:44:31;55.44;54.12;56.58;;
72736;Laerm;60856;53.238;10.448;2023-06-14T06:46:57;55.05;53.74;56.30;;
72736;Laerm;60856;53.238;10.448;2023-06-14T06:49:22;55.60;54.47;56.71;;
72736;Laerm;60856;53.238;10.448;2023-06-14T06:54:26;55.09;53.63;56.45;;
72736;Laerm;60856;53.238;10.448;2023-06-14T06:56:51;55.19;53.86;56.73;;
72736;Laerm;60856;53.238;10.448;2023-06-14T06:59:16;54.17;51.96;56.21;;
72736;Laerm;60856;53.238;10.448;2023-06-14T07:01:41;53.40;52.18;54.85;;
72736;Laerm;60856;53.238;10.448;2023-06-14T07:04:07;54.25;52.13;56.13;;
72736;Laerm;60856;53.238;10.448;2023-06-14T07:06:32;53.80;52.45;55.24;;
72736;Laerm;60856;53.238;10.448;2023-06-14T07:08:57;54.38;52.80;55.98;;
72736;Laerm;60856;53.238;10.448;2023-06-14T07:11:26;54.50;52.76;56.36;;
72736;Laerm;60856;53.238;10.448;2023-06-14T07:13:51;55.64;54.06;56.92;;
72736;Laerm;60856;53.238;10.448;2023-06-14T07:16:17;55.55;54.03;56.76;;
72736;Laerm;60856;53.238;10.448;2023-06-14T07:18:42;55.30;53.89;56.98;;
72736;Laerm;60856;53.238;10.448;2023-06-14T07:21:07;54.59;53.30;55.88;;
72736;Laerm;60856;53.238;10.448;2023-06-14T07:23:33;54.73;53.09;56.09;;
72736;Laerm;60856;53.238;10.448;2023-06-14T07:25:58;55.15;53.65;56.70;;
72736;Laerm;60856;53.238;10.448;2023-06-14T07:28:23;55.43;54.06;56.95;;
72736;Laerm;60856;53.238;10.448;2023-06-14T07:30:48;55.90;54.66;57.08;;
72736;Laerm;60856;53.238;10.448;2023-06-14T07:33:14;55.94;54.80;57.12;;
72736;Laerm;60856;53.238;10.448;2023-06-14T07:35:39;56.04;54.95;57.14;;
72736;Laerm;60856;53.238;10.448;2023-06-14T07:38:05;56.28;55.15;57.43;;
72736;Laerm;60856;53.238;10.448;2023-06-14T07:40:30;56.32;55.04;58.20;;
72736;Laerm;60856;53.238;10.448;2023-06-14T07:42:55;56.41;55.37;57.42;;
72736;Laerm;60856;53.238;10.448;2023-06-14T07:45:20;56.47;55.42;57.61;;
72736;Laerm;60856;53.238;10.448;2023-06-14T07:47:46;56.47;55.33;57.51;;
72736;Laerm;60856;53.238;10.448;2023-06-14T07:50:11;56.56;55.42;57.65;;
72736;Laerm;60856;53.238;10.448;2023-06-14T07:52:37;56.56;55.54;57.62;;
72736;Laerm;60856;53.238;10.448;2023-06-14T07:55:03;57.09;55.65;58.34;;
72736;Laerm;60856;53.238;10.448;2023-06-14T07:57:28;57.25;55.98;58.32;;
72736;Laerm;60856;53.238;10.448;2023-06-14T07:59:54;56.89;55.75;58.12;;
72736;Laerm;60856;53.238;10.448;2023-06-14T08:02:19;56.83;55.65;57.78;;
72736;Laerm;60856;53.238;10.448;2023-06-14T08:04:44;56.78;55.79;57.67;;
72736;Laerm;60856;53.238;10.448;2023-06-14T08:07:10;56.72;55.84;57.70;;
72736;Laerm;60856;53.238;10.448;2023-06-14T08:09:35;56.68;55.65;57.79;;
72736;Laerm;60856;53.238;10.448;2023-06-14T08:12:03;56.63;55.43;57.70;;
72736;Laerm;60856;53.238;10.448;2023-06-14T08:14:29;56.56;55.41;57.55;;
72736;Laerm;60856;53.238;10.448;2023-06-14T08:16:55;56.56;55.41;57.50;;
72736;Laerm;60856;53.238;10.448;2023-06-14T08:19:20;56.56;55.66;57.57;;
72736;Laerm;60856;53.238;10.448;2023-06-14T08:21:45;56.55;55.57;57.59;;
72736;Laerm;60856;53.238;10.448;2023-06-14T08:24:11;56.52;55.43;57.74;;
72736;Laerm;60856;53.238;10.448;2023-06-14T08:26:37;56.52;55.55;57.60;;
72736;Laerm;60856;53.238;10.448;2023-06-14T08:29:03;56.50;55.54;57.63;;
72736;Laerm;60856;53.238;10.448;2023-06-14T08:31:28;56.43;55.42;57.47;;
72736;Laerm;60856;53.238;10.448;2023-06-14T08:33:53;56.38;55.40;57.50;;
72736;Laerm;60856;53.238;10.448;2023-06-14T08:36:19;56.35;55.20;57.28;;
72736;Laerm;60856;53.238;10.448;2023-06-14T08:38:44;56.35;55.42;57.64;;
72736;Laerm;60856;53.238;10.448;2023-06-14T08:41:10;56.37;55.25;57.27;;
72736;Laerm;60856;53.238;10.448;2023-06-14T08:43:36;56.33;55.28;57.28;;
72736;Laerm;60856;53.238;10.448;2023-06-14T08:46:02;56.41;55.39;57.61;;
72736;Laerm;60856;53.238;10.448;2023-06-14T08:48:28;56.42;55.35;57.63;;
72736;Laerm;60856;53.238;10.448;2023-06-14T08:50:54;56.33;55.20;57.33;;
72736;Laerm;60856;53.238;10.448;2023-06-14T08:53:26;56.34;55.42;57.60;;
72736;Laerm;60856;53.238;10.448;2023-06-14T08:55:53;56.43;55.33;57.40;;
72736;Laerm;60856;53.238;10.448;2023-06-14T08:58:20;56.41;55.43;57.60;;
72736;Laerm;60856;53.238;10.448;2023-06-14T09:00:49;56.08;54.65;57.47;;
72736;Laerm;60856;53.238;10.448;2023-06-14T09:03:15;55.83;54.51;57.13;;
72736;Laerm;60856;53.238;10.448;2023-06-14T09:05:40;56.05;54.35;57.28;;
72736;Laerm;60856;53.238;10.448;2023-06-14T09:08:06;56.23;55.14;57.28;;
72736;Laerm;60856;53.238;10.448;2023-06-14T09:10:31;56.15;55.19;57.26;;
72736;Laerm;60856;53.238;10.448;2023-06-14T09:13:02;56.34;55.29;57.31;;
72736;Laerm;60856;53.238;10.448;2023-06-14T09:15:27;56.28;54.95;57.61;;
72736;Laerm;60856;53.238;10.448;2023-06-14T09:17:53;56.32;54.93;57.42;;
72736;Laerm;60856;53.238;10.448;2023-06-14T09:20:18;56.42;55.26;57.47;;
72736;Laerm;60856;53.238;10.448;2023-06-14T09:22:44;56.38;55.04;57.45;;
72736;Laerm;60856;53.238;10.448;2023-06-14T09:25:09;56.47;55.54;57.42;;
72736;Laerm;60856;53.238;10.448;2023-06-14T09:27:35;56.54;55.33;57.57;;
72736;Laerm;60856;53.238;10.448;2023-06-14T09:30:01;56.50;55.01;57.53;;
72736;Laerm;60856;53.238;10.448;2023-06-14T09:32:26;56.62;55.64;57.58;;
72736;Laerm;60856;53.238;10.448;2023-06-14T09:34:52;56.70;55.61;57.88;;
72736;Laerm;60856;53.238;10.448;2023-06-14T09:37:27;56.83;55.85;57.80;;
72736;Laerm;60856;53.238;10.448;2023-06-14T09:39:53;56.74;55.67;57.99;;
72736;Laerm;60856;53.238;10.448;2023-06-14T09:42:18;56.71;55.70;57.72;;
72736;Laerm;60856;53.238;10.448;2023-06-14T09:44:47;56.52;55.40;57.58;;
72736;Laerm;60856;53.238;10.448;2023-06-14T09:47:13;56.75;55.56;57.77;;
72736;Laerm;60856;53.238;10.448;2023-06-14T09:49:39;56.74;55.60;57.82;;
72736;Laerm;60856;53.238;10.448;2023-06-14T09:52:05;56.49;55.22;57.93;;
72736;Laerm;60856;53.238;10.448;2023-06-14T09:54:31;56.43;55.44;57.56;;
72736;Laerm;60856;53.238;10.448;2023-06-14T09:57:01;56.68;55.56;57.66;;
72736;Laerm;60856;53.238;10.448;2023-06-14T09:59:27;56.79;55.77;57.90;;
72736;Laerm;60856;53.238;10.448;2023-06-14T10:01:57;56.87;55.65;57.76;;
72736;Laerm;60856;53.238;10.448;2023-06-14T10:04:24;56.72;55.73;57.93;;
72736;Laerm;60856;53.238;10.448;2023-06-14T10:06:50;56.67;55.55;57.90;;
72736;Laerm;60856;53.238;10.448;2023-06-14T10:09:15;56.69;55.33;57.94;;
72736;Laerm;60856;53.238;10.448;2023-06-14T10:11:41;56.95;55.82;58.02;;
72736;Laerm;60856;53.238;10.448;2023-06-14T10:14:09;56.95;55.97;57.92;;
72736;Laerm;60856;53.238;10.448;2023-06-14T10:16:37;56.94;55.84;57.97;;
72736;Laerm;60856;53.238;10.448;2023-06-14T10:24:29;56.87;55.74;57.89;;
72736;Laerm;60856;53.238;10.448;2023-06-14T10:26:56;56.90;55.83;58.00;;
72736;Laerm;60856;53.238;10.448;2023-06-14T10:29:22;56.75;55.75;57.74;;
72736;Laerm;60856;53.238;10.448;2023-06-14T10:31:49;56.54;55.41;57.66;;
72736;Laerm;60856;53.238;10.448;2023-06-14T10:34:21;56.41;55.05;57.51;;
72736;Laerm;60856;53.238;10.448;2023-06-14T10:36:50;56.78;55.57;57.81;;
72736;Laerm;60856;53.238;10.448;2023-06-14T10:39:25;56.85;55.67;57.92;;
72736;Laerm;60856;53.238;10.448;2023-06-14T10:41:54;56.83;55.70;57.85;;
72736;Laerm;60856;53.238;10.448;2023-06-14T10:47:05;56.53;55.48;57.51;;
72736;Laerm;60856;53.238;10.448;2023-06-14T10:49:44;56.79;55.77;57.80;;
72736;Laerm;60856;53.238;10.448;2023-06-14T10:57:34;56.74;55.76;57.99;;
72736;Laerm;60856;53.238;10.448;2023-06-14T11:00:00;56.96;56.00;58.12;;
72736;Laerm;60856;53.238;10.448;2023-06-14T11:05:10;56.97;56.01;57.92;;
72736;Laerm;60856;53.238;10.448;2023-06-14T11:10:37;56.51;55.43;57.52;;
72736;Laerm;60856;53.238;10.448;2023-06-14T11:13:03;56.39;55.40;57.44;;
72736;Laerm;60856;53.238;10.448;2023-06-14T11:15:29;56.33;55.37;57.30;;
72736;Laerm;60856;53.238;10.448;2023-06-14T11:17:54;56.25;55.21;57.31;;
72736;Laerm;60856;53.238;10.448;2023-06-14T11:20:23;56.27;55.26;57.29;;
72736;Laerm;60856;53.238;10.448;2023-06-14T11:22:50;56.32;55.25;57.23;;
72736;Laerm;60856;53.238;10.448;2023-06-14T11:25:15;56.49;55.48;57.61;;
72736;Laerm;60856;53.238;10.448;2023-06-14T11:27:44;56.58;55.61;57.72;;
72736;Laerm;60856;53.238;10.448;2023-06-14T11:30:09;56.74;55.72;57.96;;
72736;Laerm;60856;53.238;10.448;2023-06-14T11:32:35;56.71;55.72;57.61;;
72736;Laerm;60856;53.238;10.448;2023-06-14T11:35:01;56.76;55.70;57.93;;
72736;Laerm;60856;53.238;10.448;2023-06-14T11:37:27;56.80;55.83;57.76;;
72736;Laerm;60856;53.238;10.448;2023-06-14T11:39:57;56.77;55.62;57.72;;
72736;Laerm;60856;53.238;10.448;2023-06-14T11:42:22;56.89;55.80;58.00;;
72736;Laerm;60856;53.238;10.448;2023-06-14T11:44:48;56.93;55.79;57.95;;
72736;Laerm;60856;53.238;10.448;2023-06-14T11:47:14;56.86;55.75;57.82;;
72736;Laerm;60856;53.238;10.448;2023-06-14T11:49:39;56.50;55.24;57.42;;
72736;Laerm;60856;53.238;10.448;2023-06-14T11:52:04;56.41;55.28;57.40;;
72736;Laerm;60856;53.238;10.448;2023-06-14T11:54:31;56.44;55.28;57.61;;
72736;Laerm;60856;53.238;10.448;2023-06-14T11:56:57;56.53;55.41;57.63;;
72736;Laerm;60856;53.238;10.448;2023-06-14T11:59:24;56.46;55.48;57.44;;
72736;Laerm;60856;53.238;10.448;2023-06-14T12:01:49;56.51;55.34;57.63;;
72736;Laerm;60856;53.238;10.448;2023-06-14T12:04:14;56.34;55.30;57.31;;
72736;Laerm;60856;53.238;10.448;2023-06-14T12:06:48;56.23;55.21;57.27;;
72736;Laerm;60856;53.238;10.448;2023-06-14T12:09:13;56.28;55.12;57.27;;
72736;Laerm;60856;53.238;10.448;2023-06-14T12:11:42;56.25;55.18;57.60;;
72736;Laerm;60856;53.238;10.448;2023-06-14T12:14:08;56.14;55.18;57.23;;
72736;Laerm;60856;53.238;10.448;2023-06-14T12:16:33;56.12;55.05;57.33;;
72736;Laerm;60856;53.238;10.448;2023-06-14T12:19:09;56.23;55.32;57.29;;
72736;Laerm;60856;53.238;10.448;2023-06-14T12:21:36;56.54;55.28;57.66;;
72736;Laerm;60856;53.238;10.448;2023-06-14T12:24:03;56.61;55.52;57.59;;
72736;Laerm;60856;53.238;10.448;2023-06-14T12:26:29;56.41;55.34;57.40;;
72736;Laerm;60856;53.238;10.448;2023-06-14T12:28:54;56.62;55.69;57.58;;
72736;Laerm;60856;53.238;10.448;2023-06-14T12:31:19;56.42;55.48;57.53;;
72736;Laerm;60856;53.238;10.448;2023-06-14T12:33:45;56.37;55.30;57.31;;
72736;Laerm;60856;53.238;10.448;2023-06-14T12:36:14;56.43;55.42;57.41;;
72736;Laerm;60856;53.238;10.448;2023-06-14T12:38:40;56.51;55.47;57.49;;
72736;Laerm;60856;53.238;10.448;2023-06-14T12:41:05;56.42;55.33;57.45;;
72736;Laerm;60856;53.238;10.448;2023-06-14T12:43:30;56.43;55.41;57.43;;
72736;Laerm;60856;53.238;10.448;2023-06-14T12:45:56;56.37;55.24;57.48;;
72736;Laerm;60856;53.238;10.448;2023-06-14T12:48:21;56.24;55.23;57.50;;
72736;Laerm;60856;53.238;10.448;2023-06-14T12:50:47;56.26;55.19;57.28;;
72736;Laerm;60856;53.238;10.448;2023-06-14T12:53:21;56.40;55.48;57.43;;
72736;Laerm;60856;53.238;10.448;2023-06-14T12:55:46;56.20;55.14;57.36;;
72736;Laerm;60856;53.238;10.448;2023-06-14T12:58:12;56.18;55.11;57.18;;
72736;Laerm;60856;53.238;10.448;2023-06-14T13:00:38;56.30;55.29;57.32;;
72736;Laerm;60856;53.238;10.448;2023-06-14T13:03:04;56.36;55.21;57.36;;
72736;Laerm;60856;53.238;10.448;2023-06-14T13:05:29;56.42;55.41;57.37;;
72736;Laerm;60856;53.238;10.448;2023-06-14T13:07:56;56.46;55.48;57.46;;
72736;Laerm;60856;53.238;10.448;2023-06-14T13:10:22;56.50;55.56;57.45;;
72736;Laerm;60856;53.238;10.448;2023-06-14T13:12:47;56.55;55.65;57.58;;
72736;Laerm;60856;53.238;10.448;2023-06-14T13:15:12;56.54;55.15;57.51;;
72736;Laerm;60856;53.238;10.448;2023-06-14T13:17:38;56.56;55.53;57.61;;
72736;Laerm;60856;53.238;10.448;2023-06-14T13:20:06;56.44;55.30;57.41;;
72736;Laerm;60856;53.238;10.448;2023-06-14T13:22:32;56.31;55.21;57.31;;
72736;Laerm;60856;53.238;10.448;2023-06-14T13:24:57;56.25;55.26;57.25;;
72736;Laerm;60856;53.238;10.448;2023-06-14T13:27:22;56.32;55.38;57.34;;
72736;Laerm;60856;53.238;10.448;2023-06-14T13:29:49;56.56;55.60;57.52;;
72736;Laerm;60856;53.238;10.448;2023-06-14T13:32:14;56.44;55.32;57.50;;
72736;Laerm;60856;53.238;10.448;2023-06-14T13:34:40;56.26;55.13;57.34;;
72736;Laerm;60856;53.238;10.448;2023-06-14T13:37:05;56.24;55.23;57.51;;
72736;Laerm;60856;53.238;10.448;2023-06-14T13:39:30;56.28;55.35;57.39;;
72736;Laerm;60856;53.238;10.448;2023-06-14T13:41:56;56.49;55.34;57.65;;
72736;Laerm;60856;53.238;10.448;2023-06-14T13:44:21;56.67;55.62;57.75;;
72736;Laerm;60856;53.238;10.448;2023-06-14T13:46:46;56.74;55.71;57.75;;
72736;Laerm;60856;53.238;10.448;2023-06-14T13:49:12;56.74;55.77;57.62;;
72736;Laerm;60856;53.238;10.448;2023-06-14T13:51:37;56.70;55.71;57.63;;
72736;Laerm;60856;53.238;10.448;2023-06-14T13:54:03;56.49;55.36;57.62;;
72736;Laerm;60856;53.238;10.448;2023-06-14T13:56:28;56.33;55.16;57.35;;
72736;Laerm;60856;53.238;10.448;2023-06-14T13:58:55;56.22;55.20;57.29;;
72736;Laerm;60856;53.238;10.448;2023-06-14T14:01:20;56.19;55.14;57.41;;
72736;Laerm;60856;53.238;10.448;2023-06-14T14:03:46;56.15;54.98;57.22;;